Time;durP1;ratioP1;P1;durP2;ratioP2;P2;SDS_P1;SDS_P2;PMS_P1;PMS_P2;Temp;Humidity;BMP_temperature;BMP_pressure;BME280_temperature;BME280_humidity;BME280_pressure;Samples;Min_cycle;Max_cycle;Signal;HPM_P1;HPM_P2
2023/04/01 00:00:49;;;;;;;2.03;0.60;;;;;;;10.83;48.37;98984.41;5040739;28;20044;-76
2023/04/01 00:03:19;;;;;;;1.95;0.63;;;;;;;10.83;47.81;98997.22;5046511;28;20037;-76
2023/04/01 00:05:48;;;;;;;1.02;0.40;;;;;;;10.82;48.25;98992.78;5047040;28;20060;-76
2023/04/01 00:08:17;;;;;;;1.70;0.60;;;;;;;10.81;47.82;98999.31;5047834;28;20150;-76
2023/04/01 00:10:45;;;;;;;2.83;0.80;;;;;;;10.79;48.08;98984.97;5044914;28;20458;-77
2023/04/01 00:13:13;;;;;;;2.22;0.65;;;;;;;10.77;48.10;98990.63;5046366;28;20441;-77
2023/04/01 00:15:41;;;;;;;1.25;0.68;;;;;;;10.76;48.55;98991.63;5046134;28;20045;-77
2023/04/01 00:18:09;;;;;;;1.42;0.55;;;;;;;10.76;48.03;98991.63;5047396;28;20041;-76
2023/04/01 00:20:38;;;;;;;2.25;0.75;;;;;;;10.77;48.15;98997.97;5045364;28;20448;-77
2023/04/01 00:23:06;;;;;;;0.50;0.50;;;;;;;10.75;48.25;98994.56;5046672;28;20515;-77
2023/04/01 00:25:34;;;;;;;1.02;0.57;;;;;;;10.73;48.14;98994.72;5046448;28;20758;-77
2023/04/01 00:28:02;;;;;;;1.85;0.60;;;;;;;10.74;48.63;99006.53;5046596;28;20041;-76
2023/04/01 00:30:30;;;;;;;0.98;0.47;;;;;;;10.74;48.50;98992.84;5044988;28;20053;-76
2023/04/01 00:32:58;;;;;;;1.80;0.60;;;;;;;10.73;48.68;98986.53;5046099;28;20040;-75
2023/04/01 00:35:26;;;;;;;1.23;0.50;;;;;;;10.72;48.52;98987.56;5045247;28;20055;-78
2023/04/01 00:37:55;;;;;;;1.20;0.50;;;;;;;10.72;48.13;98982.09;5044017;28;20041;-76
2023/04/01 00:40:27;;;;;;;2.47;0.60;;;;;;;10.72;48.28;98987.56;5040967;28;20056;-76
2023/04/01 00:42:55;;;;;;;1.40;0.43;;;;;;;10.70;48.15;98983.31;5045698;28;20071;-76
2023/04/01 00:45:35;;;;;;;1.85;0.60;;;;;;;10.73;48.46;98980.22;5044615;28;20041;-76
2023/04/01 00:48:08;;;;;;;1.17;0.50;;;;;;;10.70;48.33;98975.97;5047582;28;20053;-76
2023/04/01 00:50:38;;;;;;;2.45;0.75;;;;;;;10.68;48.17;98977.16;5043696;28;20067;-76
2023/04/01 00:53:08;;;;;;;1.98;0.70;;;;;;;10.71;48.46;98974.06;5046986;28;20040;-76
2023/04/01 00:55:40;;;;;;;1.77;0.63;;;;;;;10.71;48.12;98976.81;5047022;28;20053;-75
2023/04/01 00:58:12;;;;;;;1.92;0.73;;;;;;;10.69;48.25;98987.06;5047585;28;20500;-75
2023/04/01 01:00:43;;;;;;;2.47;0.63;;;;;;;10.69;48.09;98976.13;5040221;22;20135;-82
2023/04/01 01:06:28;;;;;;;2.17;0.88;;;;;;;10.67;48.78;98970.84;5032350;28;20033;-83
2023/04/01 01:09:13;;;;;;;2.55;0.98;;;;;;;10.66;48.40;98965.53;5051462;28;20495;-83
2023/04/01 01:11:44;;;;;;;2.60;0.90;;;;;;;10.63;48.17;98968.66;5006353;28;20044;-84
2023/04/01 01:14:26;;;;;;;2.30;0.80;;;;;;;10.64;48.47;98971.22;5036720;28;20136;-84
2023/04/01 01:16:59;;;;;;;1.55;0.73;;;;;;;10.63;48.39;98974.13;5061894;28;20108;-83
2023/04/01 01:19:50;;;;;;;2.33;0.77;;;;;;;10.64;48.87;98963.00;5033120;28;20056;-83
2023/04/01 01:22:33;;;;;;;3.70;0.80;;;;;;;10.62;48.94;98962.34;5052265;28;20570;-83
2023/04/01 01:25:17;;;;;;;2.03;0.73;;;;;;;10.63;48.52;98957.72;5054425;28;20041;-83
2023/04/01 01:27:55;;;;;;;1.75;0.60;;;;;;;10.63;48.85;98968.66;5047547;28;20385;-83
2023/04/01 01:30:42;;;;;;;1.75;0.60;;;;;;;10.62;48.87;98958.75;5033984;28;20060;-83
2023/04/01 01:33:25;;;;;;;0.88;0.57;;;;;;;10.61;48.79;98971.56;5071304;28;20041;-83
2023/04/01 01:35:56;;;;;;;1.40;0.50;;;;;;;10.58;48.90;98964.56;5053908;28;20079;-83
2023/04/01 01:38:28;;;;;;;0.95;0.55;;;;;;;10.59;48.64;98966.28;5049989;28;20103;-84
2023/04/01 01:41:03;;;;;;;1.63;0.40;;;;;;;10.59;49.00;98960.78;5042054;28;20068;-83
2023/04/01 01:43:34;;;;;;;1.90;0.70;;;;;;;10.60;49.02;98967.13;5049830;28;20440;-84
2023/04/01 01:46:07;;;;;;;0.55;0.40;;;;;;;10.59;49.17;98960.78;5050016;28;20084;-83
2023/04/01 01:48:36;;;;;;;0.65;0.28;;;;;;;10.58;48.53;98961.81;5032656;28;20335;-83
2023/04/01 01:51:07;;;;;;;1.00;0.30;;;;;;;10.59;48.62;98965.41;5050978;28;20053;-83
2023/04/01 01:53:35;;;;;;;2.47;0.47;;;;;;;10.57;48.50;98962.00;5037170;28;20136;-83
2023/04/01 01:56:04;;;;;;;1.50;0.50;;;;;;;10.57;49.02;98967.47;5036197;28;20037;-83
2023/04/01 01:58:41;;;;;;;1.17;0.40;;;;;;;10.57;49.03;98954.66;5047275;28;20487;-84
2023/04/01 02:01:14;;;;;;;2.00;0.68;;;;;;;10.57;48.65;98960.13;5042134;28;20037;-84
2023/04/01 02:03:45;;;;;;;1.13;0.60;;;;;;;10.55;48.78;98951.25;5044169;28;20120;-84
2023/04/01 02:06:18;;;;;;;2.05;0.75;;;;;;;10.57;48.88;98959.25;5030875;28;21159;-84
2023/04/01 02:08:51;;;;;;;1.45;0.50;;;;;;;10.55;49.18;98966.81;5046429;28;20048;-83
2023/04/01 02:11:25;;;;;;;1.45;0.70;;;;;;;10.54;48.66;98965.97;5044429;28;20053;-83
2023/04/01 02:13:57;;;;;;;2.20;0.93;;;;;;;10.55;49.13;98962.22;5048714;28;20045;-84
2023/04/01 02:16:30;;;;;;;1.63;0.80;;;;;;;10.56;49.14;98963.06;5037013;28;20033;-83
2023/04/01 02:19:01;;;;;;;2.40;0.95;;;;;;;10.53;48.71;98956.06;5035172;28;20037;-84
2023/04/01 02:21:34;;;;;;;2.28;0.93;;;;;;;10.53;49.36;98953.31;5043421;28;20068;-83
2023/04/01 02:27:01;;;;;;;2.05;0.98;;;;;;;10.52;49.23;98948.00;5051922;28;20049;-84
2023/04/01 02:29:43;;;;;;;1.67;0.70;;;;;;;10.52;49.07;98945.25;5046895;28;20050;-84
2023/04/01 02:32:17;;;;;;;1.92;0.90;;;;;;;10.53;49.57;98955.16;5039503;28;20044;-84
2023/04/01 02:34:51;;;;;;;1.88;1.10;;;;;;;10.50;48.95;98955.53;5046462;28;20041;-85
2023/04/01 02:37:29;;;;;;;2.75;0.90;;;;;;;10.51;49.02;98951.75;5047513;28;20052;-84
2023/04/01 02:40:11;;;;;;;2.23;0.83;;;;;;;10.48;49.40;98960.34;5062535;28;20094;-84
2023/04/01 02:42:45;;;;;;;2.00;1.00;;;;;;;10.44;49.49;98957.09;5042385;28;20040;-84
2023/04/01 02:45:15;;;;;;;2.60;0.90;;;;;;;10.47;49.52;98955.91;5057894;28;20571;-84
2023/04/01 02:47:46;;;;;;;1.45;0.60;;;;;;;10.47;49.25;98967.69;5054088;28;20530;-84
2023/04/01 02:50:17;;;;;;;1.08;0.60;;;;;;;10.45;49.39;98969.75;5063474;28;20507;-84
2023/04/01 02:52:48;;;;;;;1.05;0.50;;;;;;;10.44;49.48;98968.03;5044451;28;20503;-84
2023/04/01 02:55:32;;;;;;;1.10;0.50;;;;;;;10.44;49.60;98969.91;5017495;28;20045;-84
2023/04/01 02:58:16;;;;;;;1.25;0.32;;;;;;;10.40;49.30;98977.63;5065759;28;20048;-84
2023/04/01 03:00:45;;;;;;;0.30;0.20;;;;;;;10.40;49.38;98974.06;5033280;28;20052;-84
2023/04/01 03:03:13;;;;;;;0.65;0.20;;;;;;;10.38;49.10;98967.91;5048459;28;20040;-83
2023/04/01 03:05:42;;;;;;;0.85;0.47;;;;;;;10.37;49.53;98968.94;5061971;28;20503;-84
2023/04/01 03:08:11;;;;;;;0.77;0.38;;;;;;;10.36;49.11;98973.56;5068074;28;20044;-83
2023/04/01 03:10:39;;;;;;;0.65;0.40;;;;;;;10.34;49.04;98974.75;5044572;28;20063;-84
2023/04/01 03:13:08;;;;;;;0.57;0.30;;;;;;;10.32;49.50;98980.41;5047594;28;20045;-84
2023/04/01 03:15:35;;;;;;;1.05;0.20;;;;;;;10.31;49.24;98975.13;5033595;28;20563;-83
2023/04/01 03:18:04;;;;;;;0.57;0.30;;;;;;;10.30;49.67;98981.63;5068982;28;20048;-84
2023/04/01 03:20:32;;;;;;;0.95;0.40;;;;;;;10.28;49.25;98983.69;5050136;28;20115;-84
2023/04/01 03:23:00;;;;;;;0.20;0.20;;;;;;;10.27;49.62;98990.16;5050352;28;20072;-83
2023/04/01 03:25:30;;;;;;;0.63;0.28;;;;;;;10.28;49.60;98986.41;5045174;28;20107;-84
2023/04/01 03:28:02;;;;;;;0.88;0.40;;;;;;;10.25;49.98;98987.63;5029559;28;20100;-83
2023/04/01 03:30:31;;;;;;;0.65;0.30;;;;;;;10.24;49.76;98992.22;5028156;28;20123;-83
2023/04/01 03:33:00;;;;;;;0.30;0.20;;;;;;;10.23;49.48;98985.03;5048441;28;20048;-84
2023/04/01 03:35:28;;;;;;;0.60;0.32;;;;;;;10.24;49.42;98983.16;5048093;28;20495;-83
2023/04/01 03:37:56;;;;;;;0.38;0.20;;;;;;;10.22;49.54;98994.31;5049916;28;20047;-83
2023/04/01 03:40:25;;;;;;;1.38;0.30;;;;;;;10.21;50.05;98989.88;5056669;28;20044;-83
2023/04/01 03:42:55;;;;;;;0.30;0.20;;;;;;;10.23;49.55;98993.25;5055900;28;20059;-83
2023/04/01 03:45:24;;;;;;;0.32;0.25;;;;;;;10.21;49.60;98997.22;5061353;28;20048;-83
2023/04/01 03:47:52;;;;;;;0.45;0.30;;;;;;;10.21;49.81;98992.59;5051884;28;20052;-83
2023/04/01 03:50:20;;;;;;;0.70;0.28;;;;;;;10.21;49.98;98997.22;5060692;28;20124;-84
2023/04/01 03:52:48;;;;;;;0.22;0.22;;;;;;;10.21;49.62;99000.81;5070800;28;20040;-84
2023/04/01 03:55:17;;;;;;;0.30;0.30;;;;;;;10.21;49.70;98998.06;5050186;28;20033;-83
2023/04/01 03:57:46;;;;;;;0.30;0.30;;;;;;;10.20;49.84;98993.63;5042422;28;20036;-83
2023/04/01 04:00:20;;;;;;;0.65;0.28;;;;;;;10.21;50.21;98995.34;5048961;28;20447;-83
2023/04/01 04:02:54;;;;;;;0.93;0.43;;;;;;;10.21;50.05;98999.94;5068596;28;20055;-83
2023/04/01 04:05:28;;;;;;;1.20;0.45;;;;;;;10.20;50.06;98998.25;5065596;28;20049;-83
2023/04/01 04:07:56;;;;;;;0.15;0.15;;;;;;;10.20;49.94;99001.81;5053343;28;20330;-83
2023/04/01 04:10:24;;;;;;;0.20;0.20;;;;;;;10.21;50.35;98999.94;5052379;28;20033;-83
2023/04/01 04:12:53;;;;;;;1.40;0.30;;;;;;;10.21;50.21;99006.28;5040042;28;20197;-83
2023/04/01 04:15:24;;;;;;;0.20;0.20;;;;;;;10.21;50.04;99006.28;5049636;28;20083;-83
2023/04/01 04:17:52;;;;;;;0.50;0.30;;;;;;;10.19;49.88;98999.25;5040875;28;20044;-83
2023/04/01 04:20:20;;;;;;;0.50;0.20;;;;;;;10.19;50.50;99000.13;5032881;28;20033;-84
2023/04/01 04:22:48;;;;;;;0.90;0.30;;;;;;;10.19;50.40;99002.84;5052264;28;20052;-83
2023/04/01 04:25:18;;;;;;;1.48;0.38;;;;;;;10.20;50.33;99012.75;5036029;28;20088;-83
2023/04/01 04:27:46;;;;;;;0.43;0.20;;;;;;;10.19;50.31;99004.72;5032047;28;20045;-83
2023/04/01 04:30:15;;;;;;;0.38;0.30;;;;;;;10.19;50.13;99002.00;5027038;28;20087;-83
2023/04/01 04:32:45;;;;;;;0.30;0.30;;;;;;;10.20;50.52;99010.03;5047185;28;20041;-84
2023/04/01 04:35:13;;;;;;;0.82;0.30;;;;;;;10.20;50.65;99011.91;5034039;28;20052;-83
2023/04/01 04:37:41;;;;;;;0.95;0.30;;;;;;;10.19;50.22;99011.06;5033411;28;20039;-83
2023/04/01 04:40:11;;;;;;;0.68;0.40;;;;;;;10.19;50.57;99013.78;5032684;28;20131;-83
2023/04/01 04:42:39;;;;;;;1.23;0.45;;;;;;;10.18;50.63;99011.22;5039309;28;20037;-83
2023/04/01 04:45:13;;;;;;;0.75;0.30;;;;;;;10.17;50.28;99004.91;5035792;28;20041;-83
2023/04/01 04:47:50;;;;;;;0.43;0.28;;;;;;;10.20;50.80;99011.91;5028477;28;20041;-84
2023/04/01 04:50:18;;;;;;;0.35;0.20;;;;;;;10.19;50.60;99018.41;5034642;28;20053;-84
2023/04/01 04:52:47;;;;;;;0.80;0.35;;;;;;;10.19;50.72;99012.94;5032781;28;20060;-84
2023/04/01 04:55:15;;;;;;;0.25;0.20;;;;;;;10.19;50.44;99022.00;5047642;28;20052;-83
2023/04/01 04:57:46;;;;;;;0.60;0.30;;;;;;;10.19;50.95;99021.13;5039054;28;20092;-83
2023/04/01 05:00:15;;;;;;;0.88;0.40;;;;;;;10.18;50.36;99023.00;5046663;28;20584;-83
2023/04/01 05:03:02;;;;;;;0.77;0.30;;;;;;;10.18;50.53;99022.16;5053443;28;20408;-83
2023/04/01 05:05:32;;;;;;;0.80;0.25;;;;;;;10.17;50.80;99021.31;5050710;28;20045;-83
2023/04/01 05:08:02;;;;;;;1.13;0.47;;;;;;;10.16;50.52;99025.06;5054871;28;20044;-83
2023/04/01 05:10:31;;;;;;;0.85;0.40;;;;;;;10.16;50.83;99027.78;5050627;28;20056;-83
2023/04/01 05:12:59;;;;;;;1.58;0.40;;;;;;;10.16;51.10;99036.00;5036067;28;20484;-83
2023/04/01 05:15:28;;;;;;;0.47;0.45;;;;;;;10.15;51.08;99031.56;5036304;28;26551;-83
2023/04/01 05:17:57;;;;;;;0.73;0.50;;;;;;;10.15;50.75;99039.75;5059823;28;20044;-83
2023/04/01 05:20:28;;;;;;;1.67;0.80;;;;;;;10.16;50.66;99032.41;5048793;28;20126;-84
2023/04/01 05:22:57;;;;;;;1.13;0.70;;;;;;;10.13;50.78;99033.63;5047896;28;20296;-83
2023/04/01 05:25:26;;;;;;;1.50;1.00;;;;;;;10.13;51.08;99039.09;5035989;28;20065;-83
2023/04/01 05:27:55;;;;;;;1.65;0.80;;;;;;;10.12;50.73;99039.28;5064927;28;20036;-83
2023/04/01 05:30:23;;;;;;;1.52;0.60;;;;;;;10.10;50.63;99044.06;5061905;28;20447;-84
2023/04/01 05:33:18;;;;;;;0.80;0.70;;;;;;;10.08;50.67;99043.38;5052246;28;20559;-84
2023/04/01 05:35:47;;;;;;;1.63;0.60;;;;;;;10.08;51.24;99046.97;5047649;28;20045;-84
2023/04/01 05:38:17;;;;;;;1.13;0.63;;;;;;;10.05;50.94;99047.31;5044779;28;20038;-83
2023/04/01 05:40:45;;;;;;;1.98;1.05;;;;;;;10.04;51.04;99053.81;5047138;28;20045;-83
2023/04/01 05:43:13;;;;;;;0.85;0.70;;;;;;;10.03;50.81;99057.56;5052599;28;20406;-83
2023/04/01 05:45:43;;;;;;;1.23;0.60;;;;;;;10.01;51.35;99051.44;5060355;28;20426;-82
2023/04/01 05:48:15;;;;;;;0.85;0.45;;;;;;;10.00;51.15;99051.59;5066846;28;20786;-82
2023/04/01 05:50:44;;;;;;;0.60;0.50;;;;;;;9.98;51.02;99054.53;5040555;28;20077;-82
2023/04/01 05:53:13;;;;;;;0.98;0.65;;;;;;;9.99;51.12;99056.19;5031732;28;20116;-82
2023/04/01 05:55:43;;;;;;;0.52;0.40;;;;;;;9.98;51.76;99062.72;5039961;28;20068;-83
2023/04/01 05:58:11;;;;;;;0.68;0.60;;;;;;;9.97;51.82;99058.28;5031502;28;20045;-83
2023/04/01 06:00:42;;;;;;;0.90;0.57;;;;;;;9.98;51.22;99059.13;5025355;28;20049;-83
2023/04/01 06:03:10;;;;;;;0.63;0.50;;;;;;;9.98;51.37;99061.88;5046048;28;20147;-83
2023/04/01 06:05:40;;;;;;;1.70;0.85;;;;;;;9.99;51.51;99058.13;5037263;28;20053;-83
2023/04/01 06:08:14;;;;;;;0.77;0.60;;;;;;;9.98;51.62;99060.00;5042009;28;20044;-83
2023/04/01 06:11:00;;;;;;;1.35;0.80;;;;;;;9.99;52.19;99069.03;5047022;28;20045;-83
2023/04/01 06:13:43;;;;;;;1.52;0.93;;;;;;;9.95;51.93;99064.94;5045135;28;20059;-83
2023/04/01 06:16:23;;;;;;;1.00;0.73;;;;;;;9.94;52.17;99071.44;5050680;28;20512;-83
2023/04/01 06:19:08;;;;;;;1.60;0.90;;;;;;;9.94;52.59;99076.88;5048892;28;20544;-83
2023/04/01 06:22:07;;;;;;;1.35;0.88;;;;;;;9.90;52.32;99070.94;5060568;28;20696;-83
2023/04/01 06:24:49;;;;;;;0.95;0.70;;;;;;;9.88;52.27;99072.97;5058722;28;20151;-83
2023/04/01 06:27:27;;;;;;;1.10;0.73;;;;;;;9.88;52.33;99072.13;5044410;28;20476;-83
2023/04/01 06:30:06;;;;;;;1.58;0.82;;;;;;;9.87;52.46;99087.66;5033910;28;20128;-83
2023/04/01 06:32:59;;;;;;;1.42;0.80;;;;;;;9.85;52.81;99084.25;5029691;28;20053;-84
2023/04/01 06:35:43;;;;;;;1.88;0.80;;;;;;;9.85;52.62;99082.38;5041969;28;20053;-84
2023/04/01 06:38:28;;;;;;;1.58;0.88;;;;;;;9.85;52.41;99086.97;5030885;28;20041;-84
2023/04/01 06:41:43;;;;;;;1.23;1.10;;;;;;;9.81;52.86;99083.75;5038385;28;20042;-83
2023/04/01 06:44:19;;;;;;;1.50;0.90;;;;;;;9.83;52.20;99081.69;5029995;28;20504;-83
2023/04/01 06:47:28;;;;;;;1.83;0.90;;;;;;;9.83;52.57;99089.03;5044660;28;20074;-83
2023/04/01 06:50:29;;;;;;;2.13;0.80;;;;;;;9.80;52.41;99083.94;5015283;28;20041;-83
2023/04/01 06:53:19;;;;;;;;;;;;;;;9.54;52.73;99094.19;5036080;28;20056;-83
2023/04/01 06:56:10;;;;;;;0.98;0.80;;;;;;;9.73;52.09;99094.69;5042884;28;19928;-83
2023/04/01 06:58:54;;;;;;;2.20;0.90;;;;;;;9.75;52.20;99089.88;5040263;28;20124;-83
2023/04/01 07:01:29;;;;;;;1.45;0.85;;;;;;;9.75;52.68;99099.97;5056200;28;20091;-82
2023/04/01 07:04:03;;;;;;;1.35;0.80;;;;;;;9.76;52.45;99098.94;5043162;28;20136;-83
2023/04/01 07:06:36;;;;;;;1.67;0.80;;;;;;;9.76;52.41;99094.34;5051256;28;20498;-81
2023/04/01 07:09:10;;;;;;;1.50;0.80;;;;;;;9.74;52.06;99101.84;5070676;28;20114;-82
2023/04/01 07:12:19;;;;;;;1.60;0.70;;;;;;;9.76;52.91;99098.94;5049074;28;20061;-81
2023/04/01 07:15:17;;;;;;;1.73;0.60;;;;;;;9.76;53.02;99104.41;5048663;28;20423;-82
2023/04/01 07:17:51;;;;;;;0.73;0.60;;;;;;;9.75;52.32;99108.16;5040258;28;20056;-82
2023/04/01 07:20:26;;;;;;;1.98;0.80;;;;;;;9.76;52.62;99104.41;5046215;28;20336;-81
2023/04/01 07:22:59;;;;;;;1.50;0.70;;;;;;;9.75;52.42;99111.75;5053067;28;20586;-82
2023/04/01 07:25:39;;;;;;;0.88;0.80;;;;;;;9.76;52.63;99110.72;5050162;28;20132;-82
2023/04/01 07:28:48;;;;;;;1.00;0.80;;;;;;;9.73;52.24;99122.00;5035530;28;20132;-82
2023/04/01 07:31:50;;;;;;;1.10;0.65;;;;;;;9.76;52.71;99120.78;5032989;28;20060;-82
2023/04/01 07:34:26;;;;;;;1.33;0.80;;;;;;;9.77;52.96;99137.03;5033168;28;20080;-82
2023/04/01 07:37:01;;;;;;;0.85;0.60;;;;;;;9.76;52.45;99132.56;5041452;28;20414;-82
2023/04/01 07:39:41;;;;;;;1.33;0.80;;;;;;;9.77;53.36;99131.56;5062609;28;20496;-82
2023/04/01 07:42:26;;;;;;;1.13;0.80;;;;;;;9.77;52.82;99138.91;5047222;28;20037;-82
2023/04/01 07:45:04;;;;;;;1.10;0.73;;;;;;;9.78;53.37;99140.59;5050727;28;20230;-82
2023/04/01 07:47:46;;;;;;;1.40;0.90;;;;;;;9.78;53.04;99138.72;5032279;28;20071;-82
2023/04/01 07:50:22;;;;;;;1.08;0.80;;;;;;;9.77;53.00;99139.75;5054338;28;20421;-82
2023/04/01 07:53:01;;;;;;;1.02;0.80;;;;;;;9.79;53.10;99150.50;5040934;28;20393;-82
2023/04/01 07:55:38;;;;;;;1.40;0.80;;;;;;;9.79;52.87;99153.25;5036225;28;20048;-82
2023/04/01 07:58:15;;;;;;;1.83;1.02;;;;;;;9.79;53.52;99155.97;5051319;28;20077;-82
2023/04/01 08:00:52;;;;;;;1.73;0.88;;;;;;;9.79;53.21;99151.38;5059335;28;20555;-82
2023/04/01 08:03:37;;;;;;;1.25;0.90;;;;;;;9.77;53.20;99161.59;5063302;28;20037;-83
2023/04/01 08:06:20;;;;;;;1.38;1.00;;;;;;;9.77;53.28;99169.81;5051754;28;20062;-83
2023/04/01 08:09:02;;;;;;;1.70;1.00;;;;;;;9.77;53.39;99166.22;5054144;28;20041;-83
2023/04/01 08:11:48;;;;;;;1.52;1.00;;;;;;;9.76;53.27;99172.69;5068842;28;20072;-82
2023/04/01 08:14:47;;;;;;;1.40;1.02;;;;;;;9.74;53.25;99172.88;5064371;28;20090;-82
2023/04/01 08:17:41;;;;;;;1.23;0.90;;;;;;;9.73;53.59;99181.25;5047466;28;20076;-82
2023/04/01 08:20:24;;;;;;;2.38;1.00;;;;;;;9.74;53.76;99181.06;5047588;28;20037;-82
2023/04/01 08:23:01;;;;;;;2.03;1.02;;;;;;;9.72;53.87;99194.06;5041700;28;20099;-81
2023/04/01 08:25:40;;;;;;;1.40;0.93;;;;;;;9.72;53.75;99185.00;5047223;28;20140;-81
2023/04/01 08:28:16;;;;;;;1.45;1.00;;;;;;;9.74;54.01;99197.44;5067158;28;20048;-82
2023/04/01 08:30:50;;;;;;;1.83;1.00;;;;;;;9.72;53.61;99202.25;5062174;28;20052;-82
2023/04/01 08:33:23;;;;;;;1.58;1.00;;;;;;;9.74;53.31;99208.38;5046974;28;20079;-82
2023/04/01 08:36:00;;;;;;;1.30;0.80;;;;;;;9.75;53.64;99210.09;5051131;28;20110;-82
2023/04/01 08:38:33;;;;;;;1.40;0.95;;;;;;;9.74;53.34;99208.38;5055808;28;20043;-81
2023/04/01 08:41:15;;;;;;;2.05;1.00;;;;;;;9.77;53.72;99218.97;5059638;28;20049;-82
2023/04/01 08:44:53;;;;;;;1.50;1.00;;;;;;;9.72;54.49;99213.19;5041159;28;20049;-81
2023/04/01 08:47:30;;;;;;;2.45;1.23;;;;;;;9.75;54.14;99215.56;5030174;28;20048;-81
2023/04/01 08:50:32;;;;;;;2.13;1.10;;;;;;;9.75;54.54;99220.16;5052626;28;20044;-82
2023/04/01 08:53:22;;;;;;;2.80;1.60;;;;;;;9.75;53.58;99221.03;5067645;28;20055;-82
2023/04/01 08:56:06;;;;;;;2.22;1.13;;;;;;;9.77;53.92;99227.19;5041754;28;20048;-82
2023/04/01 08:58:55;;;;;;;3.10;1.80;;;;;;;9.77;54.17;99229.91;5041129;28;20041;-81
2023/04/01 09:01:56;;;;;;;2.47;1.48;;;;;;;9.78;53.83;99233.50;5034965;28;20124;-81
2023/04/01 09:05:31;;;;;;;2.20;1.38;;;;;;;9.77;54.70;99240.84;5040130;28;20397;-83
2023/04/01 09:08:12;;;;;;;1.90;1.25;;;;;;;9.77;54.40;99246.31;5043831;28;20037;-83
2023/04/01 09:11:07;;;;;;;2.60;1.60;;;;;;;9.77;54.77;99245.44;5049031;28;20144;-82
2023/04/01 09:14:29;;;;;;;2.63;1.60;;;;;;;9.79;54.90;99249.72;5050290;28;20513;-81
2023/04/01 09:17:30;;;;;;;2.97;1.52;;;;;;;9.81;54.20;99265.97;5062729;28;20074;-81
2023/04/01 09:20:17;;;;;;;3.15;1.60;;;;;;;9.82;54.47;99257.56;5050755;28;20043;-81
2023/04/01 09:22:54;;;;;;;3.22;1.60;;;;;;;9.83;54.59;99262.00;5065467;28;20070;-83
2023/04/01 09:25:47;;;;;;;2.13;1.20;;;;;;;9.84;54.20;99271.91;5051829;28;20565;-82
2023/04/01 09:28:21;;;;;;;2.22;1.50;;;;;;;9.85;54.01;99273.63;5048748;28;20140;-82
2023/04/01 09:31:17;;;;;;;3.33;1.50;;;;;;;9.87;54.43;99275.34;5054746;28;20550;-81
2023/04/01 09:34:29;;;;;;;3.17;1.50;;;;;;;9.85;53.78;99273.63;5043302;28;20550;-81
2023/04/01 09:37:21;;;;;;;2.30;1.45;;;;;;;9.86;54.21;99285.44;5050797;28;20118;-82
2023/04/01 09:40:10;;;;;;;2.00;1.40;;;;;;;9.84;54.65;99280.13;5033048;28;20047;-82
2023/04/01 09:42:50;;;;;;;2.72;1.60;;;;;;;9.88;54.49;99285.25;5047122;28;20061;-82
2023/04/01 09:45:38;;;;;;;2.67;1.73;;;;;;;9.89;53.98;99286.97;5053571;28;20432;-82
2023/04/01 09:48:21;;;;;;;2.80;1.80;;;;;;;9.89;54.55;99287.84;5051824;28;20041;-82
2023/04/01 09:51:06;;;;;;;3.05;2.03;;;;;;;9.89;54.36;99289.72;5070947;28;20052;-82
2023/04/01 09:53:50;;;;;;;3.03;2.10;;;;;;;9.90;54.47;99294.16;5062648;28;20436;-83
2023/04/01 09:56:50;;;;;;;3.10;2.20;;;;;;;9.90;54.71;99284.09;5051304;28;20531;-82
2023/04/01 10:00:07;;;;;;;4.10;2.60;;;;;;;9.94;54.20;99307.31;5065916;28;20095;-83
2023/04/01 10:03:30;;;;;;;4.43;2.35;;;;;;;9.95;54.16;99305.41;5047821;28;20045;-82
2023/04/01 10:06:55;;;;;;;3.85;2.30;;;;;;;9.95;54.67;99314.47;5030751;28;20055;-81
2023/04/01 10:10:04;;;;;;;3.40;2.28;;;;;;;10.01;54.05;99315.66;5008448;28;20426;-81
2023/04/01 10:13:38;;;;;;;3.75;2.60;;;;;;;10.01;54.26;99313.81;5046551;28;20377;-80
2023/04/01 10:16:43;;;;;;;3.95;2.40;;;;;;;10.09;54.45;99310.22;4990438;28;20062;-80
2023/04/01 10:19:36;;;;;;;3.33;2.33;;;;;;;10.14;53.66;99316.06;5009575;28;20072;-80
2023/04/01 10:22:23;;;;;;;4.68;2.90;;;;;;;10.15;53.72;99321.31;5046153;28;20400;-80
2023/04/01 10:25:29;;;;;;;3.00;2.05;;;;;;;10.17;53.70;99318.44;5067160;28;20041;-79
2023/04/01 10:28:51;;;;;;;2.83;1.80;;;;;;;10.16;54.24;99325.78;5031931;28;20207;-81
2023/04/01 10:32:20;;;;;;;2.40;1.77;;;;;;;10.15;53.99;99334.16;5036833;28;20500;-82
2023/04/01 10:35:23;;;;;;;2.50;1.70;;;;;;;10.13;53.76;99337.06;5035346;28;20045;-82
2023/04/01 10:38:13;;;;;;;;;;;;;;;9.85;54.34;99333.75;5069008;28;20037;-81
2023/04/01 10:41:15;;;;;;;2.38;1.48;;;;;;;10.07;53.89;99339.63;5065493;28;19920;-81
2023/04/01 10:44:56;;;;;;;1.55;1.17;;;;;;;10.03;54.38;99335.50;5069451;28;20096;-81
2023/04/01 10:48:02;;;;;;;1.98;1.42;;;;;;;10.02;54.56;99342.00;5055399;28;20110;-82
2023/04/01 10:51:01;;;;;;;1.58;1.20;;;;;;;10.02;54.37;99339.25;5064032;28;20478;-82
2023/04/01 10:53:43;;;;;;;2.28;1.30;;;;;;;10.03;54.44;99338.22;5069523;28;20037;-81
2023/04/01 10:56:55;;;;;;;1.95;1.25;;;;;;;10.01;54.28;99343.00;5000153;28;20433;-81
2023/04/01 11:00:33;;;;;;;2.35;1.40;;;;;;;9.96;54.49;99343.53;5061362;28;20051;-83
2023/04/01 11:04:13;;;;;;;1.45;1.20;;;;;;;9.92;54.41;99342.13;5039986;28;20195;-84
2023/04/01 11:07:53;;;;;;;1.83;1.33;;;;;;;9.94;54.97;99345.56;5065435;28;20045;-82
2023/04/01 11:11:17;;;;;;;2.20;1.50;;;;;;;9.93;55.15;99349.31;5064816;28;20056;-83
2023/04/01 11:14:14;;;;;;;2.50;1.48;;;;;;;9.95;54.71;99355.47;5052459;28;20045;-82
2023/04/01 11:17:19;;;;;;;2.17;1.60;;;;;;;9.97;55.22;99355.31;5034794;28;20140;-82
2023/04/01 11:20:11;;;;;;;3.10;1.77;;;;;;;9.99;54.53;99354.09;5032813;28;20049;-83
2023/04/01 11:22:59;;;;;;;2.50;1.75;;;;;;;9.99;54.73;99365.03;5020674;28;20421;-82
2023/04/01 11:25:50;;;;;;;2.65;1.75;;;;;;;10.00;54.78;99374.09;5029017;28;20045;-82
2023/04/01 11:29:00;;;;;;;3.53;2.10;;;;;;;10.01;54.61;99375.81;5071930;28;20605;-82
2023/04/01 11:31:48;;;;;;;3.20;2.30;;;;;;;10.00;55.23;99380.41;5026455;28;20041;-82
2023/04/01 11:34:45;;;;;;;3.60;2.17;;;;;;;10.00;55.13;99382.28;5037343;28;20136;-82
2023/04/01 11:37:26;;;;;;;3.53;2.22;;;;;;;10.01;55.06;99376.66;5071023;28;20052;-82
2023/04/01 11:40:28;;;;;;;3.45;2.20;;;;;;;10.02;54.53;99380.25;5072300;28;20051;-81
2023/04/01 11:43:33;;;;;;;3.20;2.25;;;;;;;10.03;55.13;99384.69;5053695;28;20065;-82
2023/04/01 11:46:28;;;;;;;3.97;2.42;;;;;;;10.02;54.59;99389.31;5046371;28;20060;-82
2023/04/01 11:49:07;;;;;;;2.78;2.00;;;;;;;10.03;54.82;99391.03;5057992;28;20067;-82
2023/04/01 11:51:56;;;;;;;3.28;2.28;;;;;;;10.03;54.86;99395.63;5043348;28;20467;-82
2023/04/01 11:54:36;;;;;;;4.18;2.30;;;;;;;10.04;55.07;99398.19;5055586;28;20048;-82
2023/04/01 11:57:40;;;;;;;3.50;2.30;;;;;;;10.02;55.17;99399.38;5055944;28;20053;-82
2023/04/01 12:00:42;;;;;;;3.95;2.40;;;;;;;9.98;55.18;99419.88;5066318;28;20049;-82
2023/04/01 12:03:27;;;;;;;3.67;2.70;;;;;;;10.03;55.04;99412.88;5054995;28;20232;-82
2023/04/01 12:06:03;;;;;;;4.00;2.65;;;;;;;10.04;55.12;99413.75;5061028;28;20059;-82
2023/04/01 12:08:41;;;;;;;4.20;2.47;;;;;;;10.05;55.07;99416.31;5051782;28;20044;-83
2023/04/01 12:11:18;;;;;;;4.63;2.88;;;;;;;10.06;54.84;99423.50;5068253;28;20114;-82
2023/04/01 12:13:54;;;;;;;4.30;2.78;;;;;;;10.06;54.47;99428.97;5071830;28;20389;-82
2023/04/01 12:16:35;;;;;;;3.63;2.58;;;;;;;10.10;55.09;99426.75;5072362;28;20093;-83
2023/04/01 12:19:16;;;;;;;4.10;2.78;;;;;;;10.10;55.14;99432.22;5076624;28;20187;-79
2023/04/01 12:21:59;;;;;;;3.83;2.92;;;;;;;10.11;54.99;99425.72;5071913;28;20053;-81
2023/04/01 12:24:43;;;;;;;4.50;2.65;;;;;;;10.12;55.67;99433.75;5074991;28;20048;-81
2023/04/01 12:27:40;;;;;;;4.00;2.90;;;;;;;10.10;55.02;99435.81;5067284;28;20056;-81
2023/04/01 12:30:27;;;;;;;4.43;3.22;;;;;;;10.15;55.31;99441.63;5059264;28;20519;-81
2023/04/01 12:33:11;;;;;;;3.97;2.90;;;;;;;10.15;54.85;99444.34;5066742;28;20044;-81
2023/04/01 12:35:56;;;;;;;4.78;3.10;;;;;;;10.17;55.25;99446.91;5072908;28;20495;-81
2023/04/01 12:38:36;;;;;;;4.10;3.08;;;;;;;10.18;55.16;99459.56;5054108;28;20048;-80
2023/04/01 12:41:10;;;;;;;3.80;2.90;;;;;;;10.18;54.71;99457.69;5064825;28;20053;-80
2023/04/01 12:44:14;;;;;;;4.13;2.80;;;;;;;10.17;55.14;99458.72;5037206;28;20090;-80
2023/04/01 12:47:01;;;;;;;4.20;3.00;;;;;;;10.20;55.33;99463.88;5030461;28;20055;-81
2023/04/01 12:49:44;;;;;;;3.85;2.80;;;;;;;10.22;55.12;99466.44;5037128;28;20063;-80